首页
METAR-TAF:

METAR-TAF

机场 :

Decimomannu, 意大利

纬度: 39-21N, 经度: 008-58E, 海拔: 29米

当前天气观测

该预报发布于44分钟前的10:55 UTC
风速2节,风向西
温度 13°C
湿度 77%
气压 1020 hPa
能見度: 6000
少量云层高于400英尺

METAR: LIED 261055Z 28002KT 6000 FEW004 13/09 Q1020 RMK FEW VIS MIN 6000 WIND THR35 30002KT WIND THR17 /////KT WHT

时间: 12:39 (11:39 UTC)

预报

该预报发布于3小时和39分钟前的08:00 UTC
预报有效从26日的 09点(UTC)到 26日的 18点(UTC)
风速7节,风向西北
能見度: 5000
少量云层高于500英尺
轻雾
成为
从 26日的 09点(UTC)到 26日的 11点(UTC)
能见度10公里或以上
1500米以下无云,无积雨云

TAF: LIED 260800Z 2609/2618 32007KT 5000 BR FEW005 BECMG 2609/2611 CAVOK

超过4000个机场的气象观测和天气预报(METAR&TAF报告)。

可查询的气象台以黄色和红色小点在地图上表示。

将鼠标移到小点上方,可查看气象台名称。

然后点击查看天气观测和预报。

如需切换地图:点击带黑十字的绿色按钮放大地图;点击带横线的绿色按钮缩小地图;或者点击绿色箭头查看邻近地区的地图。


METAR-TAF: